createdAt,value
2019-02-02T00:02:03.488Z,1.25
2019-02-02T00:04:10.909Z,1.21
2019-02-02T00:06:17.840Z,1.21
2019-02-02T00:08:24.951Z,1.30
2019-02-02T00:10:31.920Z,1.30
2019-02-02T00:12:38.919Z,1.29
2019-02-02T00:14:46.521Z,1.32
2019-02-02T00:16:53.473Z,1.32
2019-02-02T00:19:00.582Z,1.32
2019-02-02T00:21:07.912Z,1.31
2019-02-02T00:23:15.217Z,1.36
2019-02-02T00:25:22.204Z,1.32
2019-02-02T00:27:40.784Z,1.34
2019-02-02T00:29:38.019Z,1.33
2019-02-02T00:31:45.068Z,1.38
2019-02-02T00:33:52.125Z,1.35
2019-02-02T00:35:59.170Z,1.38
2019-02-02T00:38:06.205Z,1.46
2019-02-02T00:40:13.307Z,1.40
2019-02-02T00:42:20.403Z,1.42
2019-02-02T00:44:27.375Z,1.42
2019-02-02T00:46:34.389Z,1.51
2019-02-02T00:48:41.429Z,1.54
2019-02-02T00:50:48.520Z,1.52
2019-02-02T00:52:55.596Z,1.48
2019-02-02T00:55:02.610Z,1.47
2019-02-02T00:57:09.682Z,1.56
2019-02-02T00:59:16.635Z,1.57
2019-02-02T01:02:39.290Z,1.62
2019-02-02T01:04:46.352Z,1.58
2019-02-02T01:06:54.333Z,1.75
2019-02-02T01:09:01.322Z,1.74
2019-02-02T01:11:09.079Z,1.80
2019-02-02T01:13:16.107Z,1.76
2019-02-02T01:15:23.183Z,1.72
2019-02-02T01:17:30.172Z,1.73
2019-02-02T01:19:37.160Z,1.83
2019-02-02T01:21:44.205Z,1.77
2019-02-02T01:23:51.193Z,1.87
2019-02-02T01:25:58.201Z,1.86
2019-02-02T01:28:05.819Z,1.84
2019-02-02T01:30:15.000Z,1.87
2019-02-02T01:32:22.080Z,1.85
2019-02-02T01:34:29.176Z,1.88
2019-02-02T01:36:36.162Z,1.90
2019-02-02T01:38:43.289Z,1.95
2019-02-02T01:40:50.315Z,1.94
2019-02-02T01:42:57.298Z,1.95
2019-02-02T01:45:04.305Z,2.02
2019-02-02T01:47:11.326Z,1.98
2019-02-02T01:49:18.360Z,2.03
2019-02-02T01:51:25.393Z,1.97
2019-02-02T01:53:32.454Z,2.00
2019-02-02T01:55:39.740Z,2.04
2019-02-02T01:57:47.167Z,2.05
2019-02-02T01:59:54.603Z,2.11
2019-02-02T02:02:01.999Z,2.03
2019-02-02T02:04:08.942Z,2.10
2019-02-02T02:06:15.897Z,2.20
2019-02-02T02:08:22.941Z,2.19
2019-02-02T02:10:29.991Z,2.21
2019-02-02T02:12:37.349Z,2.25
2019-02-02T02:14:44.502Z,2.19
2019-02-02T02:16:51.455Z,2.19
2019-02-02T02:18:58.475Z,2.16
2019-02-02T02:21:05.490Z,2.23
2019-02-02T02:23:12.519Z,2.21
2019-02-02T02:25:20.768Z,2.21
2019-02-02T02:27:27.861Z,2.21
2019-02-02T02:29:35.820Z,2.21
2019-02-02T02:31:42.885Z,2.24
2019-02-02T02:33:49.874Z,2.20
2019-02-02T02:35:56.995Z,2.28
2019-02-02T02:38:04.054Z,2.22
2019-02-02T02:40:13.409Z,2.24
2019-02-02T02:42:20.353Z,2.25
2019-02-02T02:44:27.359Z,2.23
2019-02-02T02:46:34.570Z,2.24
2019-02-02T02:48:41.616Z,2.21
2019-02-02T02:50:48.835Z,2.26
2019-02-02T02:52:55.756Z,2.30
2019-02-02T02:55:02.790Z,2.28
2019-02-02T02:57:10.624Z,2.30
2019-02-02T02:59:17.633Z,2.26
2019-02-02T03:01:24.758Z,2.28
2019-02-02T03:03:31.809Z,2.23
2019-02-02T03:05:38.802Z,2.36
2019-02-02T03:07:45.870Z,2.27
2019-02-02T03:09:52.868Z,2.27
2019-02-02T03:11:59.945Z,2.30
2019-02-02T03:14:07.089Z,2.31
2019-02-02T03:16:14.103Z,2.30
2019-02-02T03:18:21.188Z,2.29
2019-02-02T03:20:28.184Z,2.26
2019-02-02T03:22:35.179Z,2.30
2019-02-02T03:24:42.184Z,2.30
2019-02-02T03:26:49.160Z,2.29
2019-02-02T03:28:56.152Z,2.26
2019-02-02T03:31:03.079Z,2.36
2019-02-02T03:33:10.161Z,2.36
2019-02-02T03:35:19.438Z,2.34
2019-02-02T03:37:26.528Z,2.35
2019-02-02T03:39:33.637Z,2.37
2019-02-02T03:41:41.063Z,2.37
2019-02-02T03:43:48.122Z,2.38
2019-02-02T03:45:55.513Z,2.42
2019-02-02T03:48:02.564Z,2.39
2019-02-02T03:50:09.986Z,2.43
2019-02-02T03:52:17.019Z,2.46
2019-02-02T03:54:24.107Z,2.45
2019-02-02T03:56:31.214Z,2.44
2019-02-02T03:58:38.165Z,2.40
2019-02-02T04:00:45.201Z,2.45
2019-02-02T04:02:52.311Z,2.49
2019-02-02T04:04:59.429Z,2.50
2019-02-02T04:07:06.495Z,2.46
2019-02-02T04:09:13.561Z,2.51
2019-02-02T04:11:20.981Z,2.56
2019-02-02T04:13:28.064Z,2.57
2019-02-02T04:15:35.051Z,2.53
2019-02-02T04:17:42.199Z,2.53
2019-02-02T04:19:49.190Z,2.51
2019-02-02T04:21:56.166Z,2.56
2019-02-02T04:24:03.253Z,2.63
2019-02-02T04:26:10.224Z,2.55
2019-02-02T04:28:17.267Z,2.55
2019-02-02T04:30:27.810Z,2.52
2019-02-02T04:32:34.878Z,2.63
2019-02-02T04:34:41.865Z,2.55
2019-02-02T04:36:48.792Z,2.59
2019-02-02T04:38:56.216Z,2.66
2019-02-02T04:41:03.390Z,2.61
2019-02-02T04:43:10.330Z,2.60
2019-02-02T04:45:17.347Z,2.70
2019-02-02T04:47:24.322Z,2.72
2019-02-02T04:49:31.341Z,2.74
2019-02-02T04:51:38.371Z,2.80
2019-02-02T04:53:45.411Z,2.74
2019-02-02T04:55:52.498Z,2.75
2019-02-02T04:57:59.546Z,2.72
2019-02-02T05:00:09.670Z,2.75
2019-02-02T05:02:16.713Z,2.72
2019-02-02T05:04:24.152Z,2.78
2019-02-02T05:06:31.219Z,2.76
2019-02-02T05:08:38.256Z,2.85
2019-02-02T05:10:45.384Z,2.88
2019-02-02T05:12:53.089Z,2.95
2019-02-02T05:15:00.326Z,2.89
2019-02-02T05:17:07.492Z,2.92
2019-02-02T05:19:14.564Z,2.87
2019-02-02T05:21:21.666Z,2.93
2019-02-02T05:23:28.768Z,2.93
2019-02-02T05:25:36.736Z,2.95
2019-02-02T05:27:43.895Z,2.95
2019-02-02T05:29:50.945Z,2.96
2019-02-02T05:31:57.898Z,3.00
2019-02-02T05:34:04.923Z,3.00
2019-02-02T05:36:11.981Z,2.95
2019-02-02T05:38:19.030Z,2.91
2019-02-02T05:40:26.049Z,3.08
2019-02-02T05:42:33.028Z,3.02
2019-02-02T05:44:40.108Z,2.93
2019-02-02T05:46:47.167Z,3.03
2019-02-02T05:48:54.208Z,2.99
2019-02-02T05:51:01.286Z,3.03
2019-02-02T05:53:08.335Z,3.07
2019-02-02T05:55:16.319Z,3.20
2019-02-02T05:57:23.307Z,3.14
2019-02-02T05:59:30.326Z,3.11
2019-02-02T06:01:37.467Z,3.04
2019-02-02T06:03:44.503Z,3.20
2019-02-02T06:05:51.557Z,3.16
2019-02-02T06:07:58.568Z,3.21
2019-02-02T06:10:06.731Z,3.20
2019-02-02T06:12:13.737Z,3.18
2019-02-02T06:14:20.822Z,3.21
2019-02-02T06:16:27.872Z,3.22
2019-02-02T06:18:35.069Z,3.19
2019-02-02T06:20:42.136Z,3.21
2019-02-02T06:22:49.210Z,3.20
2019-02-02T06:24:56.261Z,3.14
2019-02-02T06:27:03.333Z,3.14
2019-02-02T06:29:10.429Z,3.16
2019-02-02T06:31:17.541Z,3.23
2019-02-02T06:33:24.742Z,3.16
2019-02-02T06:35:31.875Z,3.22
2019-02-02T06:37:39.435Z,3.25
2019-02-02T06:39:46.766Z,3.26
2019-02-02T06:41:54.629Z,3.26
2019-02-02T06:44:02.134Z,3.24
2019-02-02T06:46:09.643Z,3.28
2019-02-02T06:48:17.152Z,3.34
2019-02-02T06:50:24.659Z,3.30
2019-02-02T06:52:31.915Z,3.33
2019-02-02T06:54:38.988Z,3.32
2019-02-02T06:56:46.093Z,3.32
2019-02-02T06:58:53.402Z,3.30
2019-02-02T07:01:00.866Z,3.36
2019-02-02T07:03:08.016Z,3.39
2019-02-02T07:05:15.295Z,3.43
2019-02-02T07:07:22.493Z,3.42
2019-02-02T07:09:29.606Z,3.41
2019-02-02T07:11:36.788Z,3.55
2019-02-02T07:13:44.173Z,3.42
2019-02-02T07:15:51.331Z,3.41
2019-02-02T07:17:58.491Z,3.51
2019-02-02T07:20:06.701Z,3.49
2019-02-02T07:22:14.119Z,3.56
2019-02-02T07:24:21.502Z,3.51
2019-02-02T07:26:28.735Z,3.51
2019-02-02T07:28:36.088Z,3.52
2019-02-02T07:30:43.212Z,3.59
2019-02-02T07:32:50.338Z,3.60
2019-02-02T07:34:57.525Z,3.59
2019-02-02T07:37:04.628Z,3.65
2019-02-02T07:39:11.883Z,3.60
2019-02-02T07:41:19.116Z,3.63
2019-02-02T07:43:26.815Z,3.60
2019-02-02T07:45:35.374Z,3.65
2019-02-02T07:47:42.642Z,3.66
2019-02-02T07:49:49.860Z,3.63
2019-02-02T07:51:57.255Z,3.64
2019-02-02T07:54:04.578Z,3.71
2019-02-02T07:56:11.769Z,3.66
2019-02-02T07:58:19.152Z,3.66
2019-02-02T08:00:41.196Z,3.74
2019-02-02T08:02:47.464Z,3.74
2019-02-02T08:04:54.530Z,3.76
2019-02-02T08:07:01.727Z,3.71
2019-02-02T08:09:10.763Z,3.74
2019-02-02T08:11:17.842Z,3.80
2019-02-02T08:13:25.085Z,3.80
2019-02-02T08:15:33.806Z,3.84
2019-02-02T08:17:41.007Z,3.86
2019-02-02T08:19:48.099Z,3.86
2019-02-02T08:21:55.161Z,3.89
2019-02-02T08:24:03.154Z,3.97
2019-02-02T08:26:10.206Z,3.95
2019-02-02T08:28:17.364Z,4.01
2019-02-02T08:30:27.708Z,4.02
2019-02-02T08:32:34.908Z,4.08
2019-02-02T08:34:42.009Z,4.07
2019-02-02T08:36:49.108Z,4.07
2019-02-02T08:38:56.230Z,4.12
2019-02-02T08:41:03.367Z,4.11
2019-02-02T08:43:10.520Z,4.20
2019-02-02T08:45:17.857Z,4.18
2019-02-02T08:47:25.015Z,4.22
2019-02-02T08:49:32.120Z,4.24
2019-02-02T08:51:39.165Z,4.28
2019-02-02T08:53:46.281Z,4.30
2019-02-02T08:55:53.352Z,4.32
2019-02-02T08:58:00.493Z,4.34
2019-02-02T09:00:11.196Z,4.39
2019-02-02T09:02:18.279Z,4.37
2019-02-02T09:04:25.423Z,4.36
2019-02-02T09:06:39.231Z,4.28
2019-02-02T09:08:41.291Z,4.34
2019-02-02T09:10:48.418Z,4.42
2019-02-02T09:12:55.572Z,4.40
2019-02-02T09:15:02.791Z,4.41
2019-02-02T09:17:09.806Z,4.42
2019-02-02T09:19:16.846Z,4.45
2019-02-02T09:21:23.995Z,4.46
2019-02-02T09:23:31.143Z,4.45
2019-02-02T09:25:38.353Z,4.43
2019-02-02T09:27:45.604Z,4.45
2019-02-02T09:29:53.030Z,4.48
2019-02-02T09:32:00.283Z,4.46
2019-02-02T09:34:07.354Z,4.53
2019-02-02T09:36:16.743Z,4.43
2019-02-02T09:38:23.378Z,4.45
2019-02-02T09:40:30.463Z,4.45
2019-02-02T09:42:37.554Z,4.46
2019-02-02T09:44:44.731Z,4.62
2019-02-02T09:46:52.021Z,4.59
2019-02-02T09:48:59.264Z,4.56
2019-02-02T09:51:07.357Z,4.55
2019-02-02T09:53:14.450Z,4.59
2019-02-02T09:55:23.094Z,4.57
2019-02-02T09:57:31.243Z,4.63
2019-02-02T09:59:38.417Z,4.68
2019-02-02T10:01:45.566Z,4.80
2019-02-02T10:03:52.669Z,4.78
2019-02-02T10:06:00.106Z,4.77
2019-02-02T10:08:07.145Z,4.84
2019-02-02T10:10:18.466Z,4.83
2019-02-02T10:12:25.590Z,4.91
2019-02-02T10:14:33.262Z,4.86
2019-02-02T10:16:40.574Z,4.85
2019-02-02T10:18:47.999Z,4.90
2019-02-02T10:21:03.753Z,4.91
2019-02-02T10:23:04.453Z,4.97
2019-02-02T10:25:13.964Z,5.01
2019-02-02T10:27:21.240Z,5.07
2019-02-02T10:29:30.256Z,5.06
2019-02-02T10:31:39.742Z,5.10
2019-02-02T10:33:46.281Z,5.19
2019-02-02T10:35:53.342Z,5.28
2019-02-02T10:38:00.456Z,5.28
2019-02-02T10:40:09.337Z,5.25
2019-02-02T10:42:16.503Z,5.24
2019-02-02T10:44:24.049Z,5.29
2019-02-02T10:46:31.473Z,5.29
2019-02-02T10:48:39.314Z,5.45
2019-02-02T10:50:46.616Z,5.47
2019-02-02T10:52:54.153Z,5.48
2019-02-02T10:55:03.321Z,5.54
2019-02-02T10:57:10.793Z,5.55
2019-02-02T10:59:18.442Z,5.68
2019-02-02T11:01:26.184Z,5.69
2019-02-02T11:03:33.779Z,5.77
2019-02-02T11:05:41.401Z,5.69
2019-02-02T11:07:49.002Z,5.78
2019-02-02T11:09:56.725Z,5.87
2019-02-02T11:12:04.365Z,5.98
2019-02-02T11:14:12.252Z,5.98
2019-02-02T11:16:20.133Z,6.07
2019-02-02T11:18:27.793Z,6.14
2019-02-02T11:20:36.320Z,6.29
2019-02-02T11:22:43.930Z,6.35
2019-02-02T11:24:51.402Z,6.42
2019-02-02T11:26:58.997Z,6.49
2019-02-02T11:29:06.379Z,6.53
2019-02-02T11:31:13.984Z,6.70
2019-02-02T11:33:21.232Z,6.65
2019-02-02T11:35:28.436Z,6.78
2019-02-02T11:37:36.395Z,6.75
2019-02-02T11:39:43.908Z,6.90
2019-02-02T11:41:51.109Z,6.94
2019-02-02T11:43:58.305Z,7.07
2019-02-02T11:46:05.393Z,7.06
2019-02-02T11:48:14.994Z,7.26
2019-02-02T11:50:21.509Z,7.32
2019-02-02T11:52:28.751Z,7.21
2019-02-02T11:54:35.828Z,7.30
2019-02-02T11:56:43.107Z,7.34
2019-02-02T11:58:50.278Z,7.40
2019-02-02T12:00:57.714Z,7.49
2019-02-02T12:03:04.955Z,7.62
2019-02-02T12:05:12.126Z,7.78
2019-02-02T12:07:19.284Z,7.83
2019-02-02T12:09:26.426Z,8.15
2019-02-02T12:11:34.040Z,8.23
2019-02-02T12:13:41.624Z,8.20
2019-02-02T12:15:49.105Z,8.24
2019-02-02T12:17:56.787Z,8.01
2019-02-02T12:20:04.237Z,7.92
2019-02-02T12:22:11.370Z,8.15
2019-02-02T12:24:18.726Z,8.19
2019-02-02T12:26:26.410Z,8.15
2019-02-02T12:28:33.982Z,8.14
2019-02-02T12:30:43.004Z,8.06
2019-02-02T12:32:50.135Z,7.95
2019-02-02T12:34:57.958Z,8.05
2019-02-02T12:37:05.167Z,7.92
2019-02-02T12:39:13.282Z,7.82
2019-02-02T12:41:21.036Z,7.78
2019-02-02T12:43:28.551Z,7.71
2019-02-02T12:45:49.230Z,7.69
2019-02-02T12:47:56.586Z,7.62
2019-02-02T12:50:04.099Z,7.67
2019-02-02T12:52:11.742Z,7.62
2019-02-02T12:54:19.127Z,7.55
2019-02-02T12:56:26.747Z,7.61
2019-02-02T12:58:34.270Z,7.44
2019-02-02T13:00:44.274Z,7.56
2019-02-02T13:02:51.992Z,7.48
2019-02-02T13:04:59.744Z,7.50
2019-02-02T13:07:07.544Z,7.53
2019-02-02T13:09:15.317Z,7.61
2019-02-02T13:11:23.998Z,7.58
2019-02-02T13:13:32.203Z,7.74
2019-02-02T13:15:40.225Z,7.75
2019-02-02T13:17:47.632Z,7.82
2019-02-02T13:19:55.472Z,7.88
2019-02-02T13:22:03.437Z,8.06
2019-02-02T13:24:10.804Z,7.99
2019-02-02T13:26:18.151Z,8.03
2019-02-02T13:28:25.614Z,8.04
2019-02-02T13:30:35.394Z,8.05
2019-02-02T13:32:49.404Z,8.12
2019-02-02T13:34:51.887Z,7.99
2019-02-02T13:36:59.362Z,8.02
2019-02-02T13:39:10.442Z,8.09
2019-02-02T13:41:17.945Z,7.99
2019-02-02T13:43:25.198Z,7.93
2019-02-02T13:45:32.661Z,7.92
2019-02-02T13:47:40.265Z,7.79
2019-02-02T13:49:47.476Z,7.82
2019-02-02T13:51:55.023Z,7.66
2019-02-02T13:54:02.547Z,7.77
2019-02-02T13:56:10.123Z,7.78
2019-02-02T13:58:17.603Z,7.59
2019-02-02T14:00:30.729Z,7.61
2019-02-02T14:02:38.081Z,7.62
2019-02-02T14:04:45.286Z,7.75
2019-02-02T14:06:52.661Z,7.72
2019-02-02T14:09:00.133Z,7.63
2019-02-02T14:11:07.622Z,7.69
2019-02-02T14:13:14.919Z,7.78
2019-02-02T14:15:22.511Z,7.66
2019-02-02T14:17:29.530Z,7.74
2019-02-02T14:19:37.074Z,7.57
2019-02-02T14:21:44.546Z,7.56
2019-02-02T14:23:51.970Z,7.46
2019-02-02T14:25:59.288Z,7.46
2019-02-02T14:28:06.790Z,7.42
2019-02-02T14:30:20.552Z,7.32
2019-02-02T14:32:27.965Z,7.42
2019-02-02T14:34:40.226Z,7.35
2019-02-02T14:36:44.566Z,7.36
2019-02-02T14:38:52.376Z,7.32
2019-02-02T14:41:17.818Z,7.31
2019-02-02T14:43:24.972Z,7.24
2019-02-02T14:45:32.323Z,7.19
2019-02-02T14:47:40.642Z,7.15
2019-02-02T14:49:47.765Z,7.18
2019-02-02T14:51:54.851Z,7.09
2019-02-02T14:54:02.015Z,7.17
2019-02-02T14:56:09.202Z,7.23
2019-02-02T14:58:16.375Z,7.20
2019-02-02T15:00:26.190Z,7.11
2019-02-02T15:02:33.320Z,7.12
2019-02-02T15:04:40.454Z,7.07
2019-02-02T15:06:47.773Z,7.12
2019-02-02T15:08:54.862Z,7.18
2019-02-02T15:11:01.996Z,7.12
2019-02-02T15:13:09.170Z,7.23
2019-02-02T15:15:16.524Z,7.19
2019-02-02T15:17:23.738Z,7.30
2019-02-02T15:19:30.855Z,7.24
2019-02-02T15:21:38.053Z,7.24
2019-02-02T15:23:45.498Z,7.19
2019-02-02T15:25:53.297Z,7.22
2019-02-02T15:28:00.527Z,7.35
2019-02-02T15:30:10.129Z,7.23
2019-02-02T15:32:17.293Z,7.27
2019-02-02T15:34:24.430Z,7.31
2019-02-02T15:36:31.457Z,7.26
2019-02-02T15:38:38.942Z,7.24
2019-02-02T15:40:46.049Z,7.18
2019-02-02T15:42:53.167Z,7.17
2019-02-02T15:45:00.328Z,7.13
2019-02-02T15:47:07.320Z,7.26
2019-02-02T15:49:14.473Z,7.19
2019-02-02T15:51:21.682Z,7.12
2019-02-02T15:53:28.763Z,7.17
2019-02-02T15:55:35.920Z,7.10
2019-02-02T15:57:43.040Z,7.10
2019-02-02T15:59:50.322Z,7.10
2019-02-02T16:01:58.408Z,6.97
2019-02-02T16:04:05.505Z,7.06
2019-02-02T16:06:12.742Z,7.14
2019-02-02T16:08:19.826Z,7.14
2019-02-02T16:10:28.964Z,7.09
2019-02-02T16:12:36.109Z,7.09
2019-02-02T16:14:43.440Z,7.12
2019-02-02T16:16:50.714Z,7.10
2019-02-02T16:18:57.884Z,7.10
2019-02-02T16:21:05.094Z,7.11
2019-02-02T16:23:12.488Z,7.01
2019-02-02T16:25:20.258Z,6.97
2019-02-02T16:27:27.859Z,7.07
2019-02-02T16:29:35.452Z,7.12
2019-02-02T16:31:42.645Z,7.12
2019-02-02T16:34:01.169Z,7.14
2019-02-02T16:35:58.930Z,7.18
2019-02-02T16:38:06.207Z,7.11
2019-02-02T16:40:17.154Z,7.10
2019-02-02T16:42:24.475Z,6.99
2019-02-02T16:44:31.934Z,7.09
2019-02-02T16:46:39.468Z,7.06
2019-02-02T16:48:46.970Z,7.12
2019-02-02T16:50:56.710Z,7.09
2019-02-02T16:53:03.240Z,7.15
2019-02-02T16:55:11.221Z,7.15
2019-02-02T16:57:18.361Z,7.12
2019-02-02T16:59:25.429Z,7.20
2019-02-02T17:01:32.601Z,7.20
2019-02-02T17:03:39.676Z,7.17
2019-02-02T17:05:46.790Z,7.19
2019-02-02T17:07:54.297Z,7.12
2019-02-02T17:10:01.431Z,7.17
2019-02-02T17:12:08.493Z,7.19
2019-02-02T17:14:17.775Z,7.12
2019-02-02T17:16:24.414Z,7.23
2019-02-02T17:18:31.510Z,7.22
2019-02-02T17:20:42.151Z,7.13
2019-02-02T17:22:49.328Z,7.15
2019-02-02T17:24:57.012Z,7.10
2019-02-02T17:27:04.336Z,7.04
2019-02-02T17:29:11.542Z,7.01
2019-02-02T17:31:18.668Z,7.07
2019-02-02T17:33:26.658Z,7.01
2019-02-02T17:35:34.169Z,7.01
2019-02-02T17:37:41.250Z,7.04
2019-02-02T17:39:48.439Z,7.08
2019-02-02T17:41:55.718Z,7.02
2019-02-02T17:44:03.110Z,7.02
2019-02-02T17:46:10.334Z,6.98
2019-02-02T17:48:17.542Z,7.09
2019-02-02T17:50:25.991Z,7.12
2019-02-02T17:52:33.049Z,7.11
2019-02-02T17:54:40.272Z,7.10
2019-02-02T17:56:47.512Z,7.05
2019-02-02T17:58:55.186Z,7.05
2019-02-02T18:01:03.382Z,7.04
2019-02-02T18:03:10.557Z,7.03
2019-02-02T18:05:17.865Z,7.12
2019-02-02T18:07:25.174Z,7.06
2019-02-02T18:09:32.266Z,7.03
2019-02-02T18:11:39.393Z,7.07
2019-02-02T18:13:46.656Z,7.06
2019-02-02T18:15:53.766Z,6.98
2019-02-02T18:18:02.516Z,6.99
2019-02-02T18:20:12.510Z,6.92
2019-02-02T18:22:19.705Z,6.90
2019-02-02T18:24:26.985Z,6.91
2019-02-02T18:26:34.693Z,6.88
2019-02-02T18:28:42.030Z,6.85
2019-02-02T18:30:49.294Z,6.90
2019-02-02T18:32:56.647Z,6.91
2019-02-02T18:35:04.190Z,6.88
2019-02-02T18:37:11.506Z,6.95
2019-02-02T18:39:18.931Z,6.86
2019-02-02T18:41:26.029Z,6.89
2019-02-02T18:43:33.215Z,6.89
2019-02-02T18:45:40.330Z,6.92
2019-02-02T18:47:47.788Z,6.95
2019-02-02T18:49:54.995Z,6.87
2019-02-02T18:52:02.137Z,6.87
2019-02-02T18:54:09.525Z,6.91
2019-02-02T18:56:18.502Z,6.94
2019-02-02T18:58:25.743Z,6.95
2019-02-02T19:00:32.971Z,6.86
2019-02-02T19:02:40.154Z,6.88
2019-02-02T19:04:47.466Z,6.89
2019-02-02T19:06:54.645Z,6.96
2019-02-02T19:09:01.988Z,6.97
2019-02-02T19:11:09.563Z,6.95
2019-02-02T19:13:16.956Z,6.95
2019-02-02T19:15:24.332Z,6.98
2019-02-02T19:17:32.404Z,6.91
2019-02-02T19:19:39.942Z,6.90
2019-02-02T19:21:47.409Z,6.96
2019-02-02T19:23:54.664Z,6.92
2019-02-02T19:26:01.826Z,6.89
2019-02-02T19:28:10.214Z,6.91
2019-02-02T19:30:23.898Z,6.88
2019-02-02T19:32:31.034Z,6.91
2019-02-02T19:34:38.254Z,6.87
2019-02-02T19:36:45.604Z,6.87
2019-02-02T19:38:52.917Z,6.79
2019-02-02T19:41:00.842Z,6.81
2019-02-02T19:43:09.009Z,6.82
2019-02-02T19:45:18.806Z,6.85
2019-02-02T19:47:26.312Z,6.78
2019-02-02T19:49:33.777Z,6.80
2019-02-02T19:51:41.068Z,6.85
2019-02-02T19:53:48.249Z,6.82
2019-02-02T19:55:55.756Z,6.85
2019-02-02T19:58:03.233Z,6.85
2019-02-02T20:00:24.267Z,6.78
2019-02-02T20:02:32.500Z,6.78
2019-02-02T20:04:39.751Z,6.85
2019-02-02T20:06:46.889Z,6.82
2019-02-02T20:08:54.047Z,6.74
2019-02-02T20:11:01.238Z,6.77
2019-02-02T20:13:08.513Z,6.78
2019-02-02T20:15:18.516Z,6.83
2019-02-02T20:17:25.637Z,6.79
2019-02-02T20:19:32.960Z,6.88
2019-02-02T20:21:40.119Z,6.92
2019-02-02T20:23:47.253Z,6.87
2019-02-02T20:25:54.790Z,6.91
2019-02-02T20:28:02.044Z,6.90
2019-02-02T20:30:13.072Z,7.02
2019-02-02T20:32:20.275Z,6.94
2019-02-02T20:34:27.481Z,6.94
2019-02-02T20:36:35.036Z,7.00
2019-02-02T20:38:43.253Z,7.07
2019-02-02T20:40:50.690Z,6.98
2019-02-02T20:42:57.973Z,6.97
2019-02-02T20:45:06.013Z,7.02
2019-02-02T20:47:13.316Z,6.99
2019-02-02T20:49:21.189Z,6.98
2019-02-02T20:51:29.032Z,7.00
2019-02-02T20:53:36.429Z,7.08
2019-02-02T20:55:46.099Z,7.09
2019-02-02T20:57:53.616Z,7.01
2019-02-02T21:00:00.952Z,6.98
2019-02-02T21:02:08.138Z,7.02
2019-02-02T21:04:16.473Z,7.05
2019-02-02T21:06:24.048Z,7.00
2019-02-02T21:08:31.837Z,6.93
2019-02-02T21:10:39.006Z,6.98
2019-02-02T21:12:46.197Z,6.98
2019-02-02T21:14:53.697Z,6.92
2019-02-02T21:17:00.856Z,6.96
2019-02-02T21:19:08.243Z,6.97
2019-02-02T21:21:15.370Z,6.97
2019-02-02T21:23:23.025Z,6.96
2019-02-02T21:25:30.066Z,6.85
2019-02-02T21:27:37.405Z,6.84
2019-02-02T21:29:44.999Z,6.80
2019-02-02T21:31:52.307Z,6.79
2019-02-02T21:33:59.503Z,6.78
2019-02-02T21:36:07.120Z,6.77
2019-02-02T21:38:14.555Z,6.74
2019-02-02T21:40:25.017Z,6.74
2019-02-02T21:42:32.806Z,6.71
2019-02-02T21:44:43.321Z,6.72
2019-02-02T21:46:49.413Z,6.75
2019-02-02T21:48:56.614Z,6.74
2019-02-02T21:51:03.805Z,6.72
2019-02-02T21:53:11.507Z,6.66
2019-02-02T21:55:21.708Z,6.58
2019-02-02T21:57:29.832Z,6.52
2019-02-02T21:59:37.056Z,6.63
2019-02-02T22:01:44.327Z,6.64
2019-02-02T22:03:51.680Z,6.60
2019-02-02T22:05:58.967Z,6.55
2019-02-02T22:08:07.176Z,6.56
2019-02-02T22:10:14.619Z,6.55
2019-02-02T22:12:21.743Z,6.53
2019-02-02T22:14:28.828Z,6.46
2019-02-02T22:16:36.107Z,6.39
2019-02-02T22:18:43.233Z,6.44
2019-02-02T22:20:50.398Z,6.32
2019-02-02T22:22:57.805Z,6.35
2019-02-02T22:25:07.689Z,6.31
2019-02-02T22:27:14.866Z,6.31
2019-02-02T22:29:22.171Z,6.37
2019-02-02T22:31:29.726Z,6.32
2019-02-02T22:33:37.798Z,6.29
2019-02-02T22:35:45.044Z,6.28
2019-02-02T22:37:52.247Z,6.30
2019-02-02T22:39:59.554Z,6.24
2019-02-02T22:42:07.182Z,6.15
2019-02-02T22:44:14.291Z,5.99
2019-02-02T22:46:21.461Z,6.09
2019-02-02T22:48:28.601Z,6.06
2019-02-02T22:50:35.890Z,6.02
2019-02-02T22:52:43.255Z,6.05
2019-02-02T22:54:50.407Z,5.98
2019-02-02T22:56:57.978Z,5.92
2019-02-02T22:59:05.195Z,5.94
2019-02-02T23:01:29.503Z,5.89
2019-02-02T23:03:51.402Z,5.86
2019-02-02T23:06:51.554Z,5.84
2019-02-02T23:10:36.418Z,5.81
2019-02-02T23:13:57.350Z,5.74
2019-02-02T23:16:29.656Z,5.66
2019-02-02T23:18:36.852Z,5.62
2019-02-02T23:20:44.442Z,5.54
2019-02-02T23:22:51.451Z,5.32
2019-02-02T23:24:58.529Z,5.27
2019-02-02T23:27:06.008Z,5.27
2019-02-02T23:29:13.439Z,5.13
2019-02-02T23:31:20.951Z,5.24
2019-02-02T23:33:28.423Z,5.32
2019-02-02T23:35:36.179Z,5.37
2019-02-02T23:37:43.696Z,5.49
2019-02-02T23:39:51.055Z,5.53
2019-02-02T23:41:58.468Z,5.54
2019-02-02T23:44:05.859Z,5.43
2019-02-02T23:46:13.284Z,5.32
2019-02-02T23:48:20.734Z,5.27
2019-02-02T23:50:28.098Z,5.17
2019-02-02T23:52:35.621Z,5.20
2019-02-02T23:54:42.937Z,5.24
2019-02-02T23:56:50.231Z,5.31
2019-02-02T23:58:57.221Z,5.38
